Terminal Aerodrome Forecast
Issued by NWS Anchorage, AK

Home | Current Version | Previous Version | Text Only | Print | Product List | Glossary On
Versions: 1 2 3 4 5 6 7 8 9 10 11 12 13 14 15 16 17 18 19 20 21 22 23 24 25 26 27 28 29 30 31 32 33 34 35 36 37 38 39 40 41 42 43 44 45 46 47 48 49 50
000
FTAK31 PANC 062331
TAFANC
TAF
PANC 062331Z 0700/0806 20011KT P6SM FEW035 OVC060
      TEMPO 0700/0702 BKN035
     FM070500 17012G18KT P6SM -RA BKN035
     FM070900 16012G20KT 2SM -SN SCT012 OVC020
     FM071700 18022G30KT P6SM VCSH SCT020 BKN035
     FM072000 19015G25KT P6SM VCSH SCT035 BKN070
     FM080200 20012KT P6SM SCT040 BKN100=

USA.gov is the U.S. government's official web portal to all federal, state and local government web resources and services.